Terminal Aerodrome Forecast
Issued by NWS

Home | Current Version | Previous Version | Graphics & Text | Print | Product List | Glossary On
Versions: 1 2 3 4 5 6 7 8 9 10 11 12 13 14 15 16 17 18 19 20 21 22 23 24 25 26 27 28 29 30 31 32 33
718
FTUS43 KLOT 201124
TAFORD
TAF
KORD 201124Z 2012/2118 22012KT 4SM -RA BR SCT009 SCT012 OVC018
      TEMPO 2012/2016 2SM SHRA BR OVC009
     FM201600 23012KT 4SM SHRA BR SCT006 OVC010
      TEMPO 2018/2022 2SM TSRA BR OVC006CB
     FM202200 30011KT 2SM SHRA BR SCT004 OVC007
     FM210500 32012G17KT 4SM -FZRAPL BR SCT007 OVC015
     FM210700 33012G17KT P6SM SCT015 BKN080
     FM211300 33012KT P6SM BKN250=

USA.gov is the U.S. government's official web portal to all federal, state and local government web resources and services.